Terminal Aerodrome Forecast
Issued by NWS Lake Charles, LA

Home | Current Version | Previous Version | Text Only | Print | Product List | Glossary On
Versions: 1 2 3 4 5 6 7 8 9 10 11 12 13
000
FTUS44 KLCH 032325
TAFAEX
TAF
KAEX 032325Z 0400/0424 15006KT P6SM VCSH SCT040
     FM040100 VRB03KT P6SM FEW040
      TEMPO 0409/0413 4SM BR
     FM041400 17007KT P6SM VCSH SCT035 PROB30 0418/0424 3SM TSRA
      OVC025CB=

USA.gov is the U.S. government's official web portal to all federal, state and local government web resources and services.